sensor_id;sensor_type;location;lat;lon;timestamp;temperature;humidity
64874;HTU21D;51367;45.204;38.576;2023-11-21T00:00:19;4.68;88.63
64874;HTU21D;51367;45.204;38.576;2023-11-21T00:02:45;4.67;88.62
64874;HTU21D;51367;45.204;38.576;2023-11-21T00:05:13;4.67;88.64
64874;HTU21D;51367;45.204;38.576;2023-11-21T00:07:42;4.66;88.63
64874;HTU21D;51367;45.204;38.576;2023-11-21T00:10:09;4.63;88.60
64874;HTU21D;51367;45.204;38.576;2023-11-21T00:12:36;4.62;88.66
64874;HTU21D;51367;45.204;38.576;2023-11-21T00:15:03;4.61;88.59
64874;HTU21D;51367;45.204;38.576;2023-11-21T00:17:31;4.58;88.64
64874;HTU21D;51367;45.204;38.576;2023-11-21T00:19:57;4.56;88.65
64874;HTU21D;51367;45.204;38.576;2023-11-21T00:22:22;4.52;88.68
64874;HTU21D;51367;45.204;38.576;2023-11-21T00:24:48;4.51;88.70
64874;HTU21D;51367;45.204;38.576;2023-11-21T00:27:14;4.50;88.71
64874;HTU21D;51367;45.204;38.576;2023-11-21T00:29:40;4.46;88.69
64874;HTU21D;51367;45.204;38.576;2023-11-21T00:32:07;4.41;88.73
64874;HTU21D;51367;45.204;38.576;2023-11-21T00:34:33;4.39;88.77
64874;HTU21D;51367;45.204;38.576;2023-11-21T00:37:00;4.37;88.76
64874;HTU21D;51367;45.204;38.576;2023-11-21T00:39:26;4.33;88.80
64874;HTU21D;51367;45.204;38.576;2023-11-21T00:41:52;4.32;88.85
64874;HTU21D;51367;45.204;38.576;2023-11-21T00:44:18;4.30;88.86
64874;HTU21D;51367;45.204;38.576;2023-11-21T00:46:44;4.29;88.89
64874;HTU21D;51367;45.204;38.576;2023-11-21T00:49:10;4.27;88.89
64874;HTU21D;51367;45.204;38.576;2023-11-21T00:51:36;4.26;88.89
64874;HTU21D;51367;45.204;38.576;2023-11-21T00:54:02;4.24;88.94
64874;HTU21D;51367;45.204;38.576;2023-11-21T00:56:28;4.23;88.94
64874;HTU21D;51367;45.204;38.576;2023-11-21T00:58:54;4.23;88.98
64874;HTU21D;51367;45.204;38.576;2023-11-21T01:01:21;4.23;88.97
64874;HTU21D;51367;45.204;38.576;2023-11-21T01:03:50;4.23;88.99
64874;HTU21D;51367;45.204;38.576;2023-11-21T01:06:16;4.24;88.98
64874;HTU21D;51367;45.204;38.576;2023-11-21T01:08:44;4.23;88.98
64874;HTU21D;51367;45.204;38.576;2023-11-21T01:11:10;4.23;88.94
64874;HTU21D;51367;45.204;38.576;2023-11-21T01:13:41;4.23;88.94
64874;HTU21D;51367;45.204;38.576;2023-11-21T01:16:08;4.20;88.91
64874;HTU21D;51367;45.204;38.576;2023-11-21T01:18:35;4.19;88.96
64874;HTU21D;51367;45.204;38.576;2023-11-21T01:21:01;4.19;88.98
64874;HTU21D;51367;45.204;38.576;2023-11-21T01:23:27;4.19;88.99
64874;HTU21D;51367;45.204;38.576;2023-11-21T01:25:56;4.18;88.96
64874;HTU21D;51367;45.204;38.576;2023-11-21T01:28:22;4.17;88.96
64874;HTU21D;51367;45.204;38.576;2023-11-21T01:30:51;4.16;88.99
64874;HTU21D;51367;45.204;38.576;2023-11-21T01:33:16;4.16;88.97
64874;HTU21D;51367;45.204;38.576;2023-11-21T01:35:42;4.15;89.00
64874;HTU21D;51367;45.204;38.576;2023-11-21T01:38:09;4.15;89.02
64874;HTU21D;51367;45.204;38.576;2023-11-21T01:40:35;4.14;89.01
64874;HTU21D;51367;45.204;38.576;2023-11-21T01:43:01;4.13;88.99
64874;HTU21D;51367;45.204;38.576;2023-11-21T01:45:30;4.14;89.02
64874;HTU21D;51367;45.204;38.576;2023-11-21T01:48:00;4.15;89.03
64874;HTU21D;51367;45.204;38.576;2023-11-21T01:50:26;4.14;89.03
64874;HTU21D;51367;45.204;38.576;2023-11-21T01:52:54;4.14;88.99
64874;HTU21D;51367;45.204;38.576;2023-11-21T01:55:20;4.14;89.01
64874;HTU21D;51367;45.204;38.576;2023-11-21T01:57:46;4.16;89.00
64874;HTU21D;51367;45.204;38.576;2023-11-21T02:00:13;4.15;88.98
64874;HTU21D;51367;45.204;38.576;2023-11-21T02:02:48;4.16;88.99
64874;HTU21D;51367;45.204;38.576;2023-11-21T02:05:15;4.17;89.00
64874;HTU21D;51367;45.204;38.576;2023-11-21T02:07:45;4.17;88.96
64874;HTU21D;51367;45.204;38.576;2023-11-21T02:10:15;4.20;88.99
64874;HTU21D;51367;45.204;38.576;2023-11-21T02:12:42;4.20;88.96
64874;HTU21D;51367;45.204;38.576;2023-11-21T02:15:13;4.20;88.92
64874;HTU21D;51367;45.204;38.576;2023-11-21T02:17:52;4.19;88.88
64874;HTU21D;51367;45.204;38.576;2023-11-21T02:20:20;4.19;88.94
64874;HTU21D;51367;45.204;38.576;2023-11-21T02:22:55;4.19;88.98
64874;HTU21D;51367;45.204;38.576;2023-11-21T02:25:32;4.21;89.00
64874;HTU21D;51367;45.204;38.576;2023-11-21T02:28:02;4.21;88.99
64874;HTU21D;51367;45.204;38.576;2023-11-21T02:30:29;4.22;88.99
64874;HTU21D;51367;45.204;38.576;2023-11-21T02:32:58;4.23;88.96
64874;HTU21D;51367;45.204;38.576;2023-11-21T02:35:25;4.23;88.93
64874;HTU21D;51367;45.204;38.576;2023-11-21T02:37:52;4.21;88.90
64874;HTU21D;51367;45.204;38.576;2023-11-21T02:40:18;4.20;88.87
64874;HTU21D;51367;45.204;38.576;2023-11-21T02:42:46;4.19;88.90
64874;HTU21D;51367;45.204;38.576;2023-11-21T02:45:14;4.18;88.89
64874;HTU21D;51367;45.204;38.576;2023-11-21T02:47:43;4.17;88.91
64874;HTU21D;51367;45.204;38.576;2023-11-21T02:50:09;4.16;88.86
64874;HTU21D;51367;45.204;38.576;2023-11-21T02:52:35;4.13;88.87
64874;HTU21D;51367;45.204;38.576;2023-11-21T02:55:02;4.13;88.87
64874;HTU21D;51367;45.204;38.576;2023-11-21T02:57:28;4.12;88.91
64874;HTU21D;51367;45.204;38.576;2023-11-21T02:59:55;4.12;88.91
64874;HTU21D;51367;45.204;38.576;2023-11-21T03:02:21;4.10;88.88
64874;HTU21D;51367;45.204;38.576;2023-11-21T03:04:48;4.08;88.86
64874;HTU21D;51367;45.204;38.576;2023-11-21T03:07:15;4.05;88.83
64874;HTU21D;51367;45.204;38.576;2023-11-21T03:09:41;4.03;88.88
64874;HTU21D;51367;45.204;38.576;2023-11-21T03:12:07;4.01;88.86
64874;HTU21D;51367;45.204;38.576;2023-11-21T03:14:34;4.00;88.93
64874;HTU21D;51367;45.204;38.576;2023-11-21T03:17:00;3.99;88.94
64874;HTU21D;51367;45.204;38.576;2023-11-21T03:19:27;3.99;88.95
64874;HTU21D;51367;45.204;38.576;2023-11-21T03:21:53;3.99;88.99
64874;HTU21D;51367;45.204;38.576;2023-11-21T03:24:19;4.00;88.98
64874;HTU21D;51367;45.204;38.576;2023-11-21T03:26:45;4.00;88.97
64874;HTU21D;51367;45.204;38.576;2023-11-21T03:29:12;4.00;88.93
64874;HTU21D;51367;45.204;38.576;2023-11-21T03:31:39;4.02;88.92
64874;HTU21D;51367;45.204;38.576;2023-11-21T03:34:05;4.01;88.92
64874;HTU21D;51367;45.204;38.576;2023-11-21T03:36:32;4.01;88.89
64874;HTU21D;51367;45.204;38.576;2023-11-21T03:38:58;4.02;88.91
64874;HTU21D;51367;45.204;38.576;2023-11-21T03:41:24;4.03;88.90
64874;HTU21D;51367;45.204;38.576;2023-11-21T03:43:50;4.02;88.90
64874;HTU21D;51367;45.204;38.576;2023-11-21T03:46:16;4.04;88.89
64874;HTU21D;51367;45.204;38.576;2023-11-21T03:48:43;4.05;88.88
64874;HTU21D;51367;45.204;38.576;2023-11-21T03:51:09;4.06;88.90
64874;HTU21D;51367;45.204;38.576;2023-11-21T03:53:35;4.07;88.86
64874;HTU21D;51367;45.204;38.576;2023-11-21T03:56:02;4.06;88.85
64874;HTU21D;51367;45.204;38.576;2023-11-21T03:58:29;4.06;88.88
64874;HTU21D;51367;45.204;38.576;2023-11-21T04:00:55;4.08;88.92
64874;HTU21D;51367;45.204;38.576;2023-11-21T04:03:21;4.10;88.92
64874;HTU21D;51367;45.204;38.576;2023-11-21T04:05:47;4.12;88.90
64874;HTU21D;51367;45.204;38.576;2023-11-21T04:08:13;4.13;88.87
64874;HTU21D;51367;45.204;38.576;2023-11-21T04:10:39;4.14;88.91
64874;HTU21D;51367;45.204;38.576;2023-11-21T04:13:05;4.16;88.91
64874;HTU21D;51367;45.204;38.576;2023-11-21T04:15:32;4.17;88.92
64874;HTU21D;51367;45.204;38.576;2023-11-21T04:17:58;4.19;88.91
64874;HTU21D;51367;45.204;38.576;2023-11-21T04:20:24;4.18;88.89
64874;HTU21D;51367;45.204;38.576;2023-11-21T04:22:50;4.19;88.88
64874;HTU21D;51367;45.204;38.576;2023-11-21T04:25:16;4.17;88.86
64874;HTU21D;51367;45.204;38.576;2023-11-21T04:27:44;4.17;88.86
64874;HTU21D;51367;45.204;38.576;2023-11-21T04:30:11;4.15;88.82
64874;HTU21D;51367;45.204;38.576;2023-11-21T04:32:37;4.14;88.89
64874;HTU21D;51367;45.204;38.576;2023-11-21T04:35:05;4.13;88.89
64874;HTU21D;51367;45.204;38.576;2023-11-21T04:37:31;4.14;88.89
64874;HTU21D;51367;45.204;38.576;2023-11-21T04:39:57;4.10;88.89
64874;HTU21D;51367;45.204;38.576;2023-11-21T04:42:22;4.07;88.90
64874;HTU21D;51367;45.204;38.576;2023-11-21T04:44:49;4.06;88.93
64874;HTU21D;51367;45.204;38.576;2023-11-21T04:47:15;4.05;88.91
64874;HTU21D;51367;45.204;38.576;2023-11-21T04:49:42;4.04;88.98
64874;HTU21D;51367;45.204;38.576;2023-11-21T04:52:09;4.03;88.99
64874;HTU21D;51367;45.204;38.576;2023-11-21T04:54:35;4.04;88.95
64874;HTU21D;51367;45.204;38.576;2023-11-21T04:57:01;4.02;88.99
64874;HTU21D;51367;45.204;38.576;2023-11-21T04:59:27;4.04;89.02
64874;HTU21D;51367;45.204;38.576;2023-11-21T05:01:53;4.02;88.96
64874;HTU21D;51367;45.204;38.576;2023-11-21T05:04:20;4.01;88.99
64874;HTU21D;51367;45.204;38.576;2023-11-21T05:06:48;4.02;88.99
64874;HTU21D;51367;45.204;38.576;2023-11-21T05:09:14;4.02;88.95
64874;HTU21D;51367;45.204;38.576;2023-11-21T05:11:41;4.03;88.96
64874;HTU21D;51367;45.204;38.576;2023-11-21T05:14:07;4.04;88.99
64874;HTU21D;51367;45.204;38.576;2023-11-21T05:16:34;4.04;88.97
64874;HTU21D;51367;45.204;38.576;2023-11-21T05:19:01;4.03;88.94
64874;HTU21D;51367;45.204;38.576;2023-11-21T05:21:27;4.03;88.98
64874;HTU21D;51367;45.204;38.576;2023-11-21T05:23:55;4.05;88.99
64874;HTU21D;51367;45.204;38.576;2023-11-21T05:26:21;4.04;88.92
64874;HTU21D;51367;45.204;38.576;2023-11-21T05:28:47;4.04;88.96
64874;HTU21D;51367;45.204;38.576;2023-11-21T05:31:13;4.05;88.99
64874;HTU21D;51367;45.204;38.576;2023-11-21T05:33:39;4.06;88.99
64874;HTU21D;51367;45.204;38.576;2023-11-21T05:36:05;4.07;89.00
64874;HTU21D;51367;45.204;38.576;2023-11-21T05:38:35;4.09;88.95
64874;HTU21D;51367;45.204;38.576;2023-11-21T05:41:02;4.09;88.93
64874;HTU21D;51367;45.204;38.576;2023-11-21T05:43:28;4.08;88.92
64874;HTU21D;51367;45.204;38.576;2023-11-21T05:45:55;4.10;88.92
64874;HTU21D;51367;45.204;38.576;2023-11-21T05:48:21;4.12;88.92
64874;HTU21D;51367;45.204;38.576;2023-11-21T05:50:47;4.12;88.91
64874;HTU21D;51367;45.204;38.576;2023-11-21T05:53:15;4.14;88.90
64874;HTU21D;51367;45.204;38.576;2023-11-21T05:55:41;4.15;88.89
64874;HTU21D;51367;45.204;38.576;2023-11-21T05:58:08;4.16;88.86
64874;HTU21D;51367;45.204;38.576;2023-11-21T06:00:34;4.17;88.86
64874;HTU21D;51367;45.204;38.576;2023-11-21T06:03:00;4.19;88.87
64874;HTU21D;51367;45.204;38.576;2023-11-21T06:05:26;4.20;88.85
64874;HTU21D;51367;45.204;38.576;2023-11-21T06:07:54;4.21;88.83
64874;HTU21D;51367;45.204;38.576;2023-11-21T06:10:23;4.24;88.83
64874;HTU21D;51367;45.204;38.576;2023-11-21T06:12:49;4.23;88.80
64874;HTU21D;51367;45.204;38.576;2023-11-21T06:15:15;4.26;88.80
64874;HTU21D;51367;45.204;38.576;2023-11-21T06:17:42;4.28;88.81
64874;HTU21D;51367;45.204;38.576;2023-11-21T06:20:10;4.30;88.76
64874;HTU21D;51367;45.204;38.576;2023-11-21T06:22:41;4.31;88.76
64874;HTU21D;51367;45.204;38.576;2023-11-21T06:25:08;4.31;88.74
64874;HTU21D;51367;45.204;38.576;2023-11-21T06:27:42;4.33;88.76
64874;HTU21D;51367;45.204;38.576;2023-11-21T06:30:09;4.34;88.76
64874;HTU21D;51367;45.204;38.576;2023-11-21T06:32:39;4.37;88.75
64874;HTU21D;51367;45.204;38.576;2023-11-21T06:35:08;4.39;88.73
64874;HTU21D;51367;45.204;38.576;2023-11-21T06:37:37;4.39;88.71
64874;HTU21D;51367;45.204;38.576;2023-11-21T06:40:03;4.42;88.70
64874;HTU21D;51367;45.204;38.576;2023-11-21T06:42:32;4.42;88.70
64874;HTU21D;51367;45.204;38.576;2023-11-21T06:44:59;4.45;88.72
64874;HTU21D;51367;45.204;38.576;2023-11-21T06:47:27;4.47;88.69
64874;HTU21D;51367;45.204;38.576;2023-11-21T06:49:55;4.49;88.69
64874;HTU21D;51367;45.204;38.576;2023-11-21T06:52:21;4.50;88.69
64874;HTU21D;51367;45.204;38.576;2023-11-21T06:54:48;4.51;88.67
64874;HTU21D;51367;45.204;38.576;2023-11-21T06:57:17;4.53;88.64
64874;HTU21D;51367;45.204;38.576;2023-11-21T06:59:48;4.54;88.65
64874;HTU21D;51367;45.204;38.576;2023-11-21T07:02:16;4.53;88.64
64874;HTU21D;51367;45.204;38.576;2023-11-21T07:04:45;4.56;88.64
64874;HTU21D;51367;45.204;38.576;2023-11-21T07:07:12;4.56;88.65
64874;HTU21D;51367;45.204;38.576;2023-11-21T07:09:38;4.56;88.64
64874;HTU21D;51367;45.204;38.576;2023-11-21T07:12:04;4.56;88.67
64874;HTU21D;51367;45.204;38.576;2023-11-21T07:14:35;4.57;88.70
64874;HTU21D;51367;45.204;38.576;2023-11-21T07:17:02;4.57;88.70
64874;HTU21D;51367;45.204;38.576;2023-11-21T07:19:28;4.57;88.66
64874;HTU21D;51367;45.204;38.576;2023-11-21T07:21:54;4.54;88.65
64874;HTU21D;51367;45.204;38.576;2023-11-21T07:24:21;4.54;88.69
64874;HTU21D;51367;45.204;38.576;2023-11-21T07:26:48;4.52;88.70
64874;HTU21D;51367;45.204;38.576;2023-11-21T07:29:14;4.53;88.76
64874;HTU21D;51367;45.204;38.576;2023-11-21T07:31:40;4.53;88.78
64874;HTU21D;51367;45.204;38.576;2023-11-21T07:34:06;4.56;88.76
64874;HTU21D;51367;45.204;38.576;2023-11-21T07:36:33;4.56;88.73
64874;HTU21D;51367;45.204;38.576;2023-11-21T07:38:59;4.59;88.72
64874;HTU21D;51367;45.204;38.576;2023-11-21T07:41:27;4.60;88.70
64874;HTU21D;51367;45.204;38.576;2023-11-21T07:43:55;4.62;88.67
64874;HTU21D;51367;45.204;38.576;2023-11-21T07:46:21;4.64;88.64
64874;HTU21D;51367;45.204;38.576;2023-11-21T07:48:47;4.63;88.60
64874;HTU21D;51367;45.204;38.576;2023-11-21T07:51:13;4.62;88.51
64874;HTU21D;51367;45.204;38.576;2023-11-21T07:53:39;4.62;88.51
64874;HTU21D;51367;45.204;38.576;2023-11-21T07:56:06;4.62;88.51
64874;HTU21D;51367;45.204;38.576;2023-11-21T07:58:36;4.61;88.45
64874;HTU21D;51367;45.204;38.576;2023-11-21T08:01:03;4.60;88.49
64874;HTU21D;51367;45.204;38.576;2023-11-21T08:03:29;4.58;88.34
64874;HTU21D;51367;45.204;38.576;2023-11-21T08:05:58;4.54;88.44
64874;HTU21D;51367;45.204;38.576;2023-11-21T08:08:25;4.51;88.43
64874;HTU21D;51367;45.204;38.576;2023-11-21T08:10:51;4.50;88.28
64874;HTU21D;51367;45.204;38.576;2023-11-21T08:13:26;4.48;88.42
64874;HTU21D;51367;45.204;38.576;2023-11-21T08:15:55;4.49;88.52
64874;HTU21D;51367;45.204;38.576;2023-11-21T08:18:28;4.48;88.55
64874;HTU21D;51367;45.204;38.576;2023-11-21T08:20:56;4.52;88.56
64874;HTU21D;51367;45.204;38.576;2023-11-21T08:23:22;4.54;88.52
64874;HTU21D;51367;45.204;38.576;2023-11-21T08:25:54;4.53;88.35
64874;HTU21D;51367;45.204;38.576;2023-11-21T08:28:21;4.52;88.39
64874;HTU21D;51367;45.204;38.576;2023-11-21T08:30:54;4.54;88.40
64874;HTU21D;51367;45.204;38.576;2023-11-21T08:33:20;4.56;88.38
64874;HTU21D;51367;45.204;38.576;2023-11-21T08:35:46;4.57;88.34
64874;HTU21D;51367;45.204;38.576;2023-11-21T08:38:12;4.57;88.32
64874;HTU21D;51367;45.204;38.576;2023-11-21T08:40:38;4.60;88.34
64874;HTU21D;51367;45.204;38.576;2023-11-21T08:43:04;4.61;88.32
64874;HTU21D;51367;45.204;38.576;2023-11-21T08:45:31;4.62;88.32
64874;HTU21D;51367;45.204;38.576;2023-11-21T08:47:58;4.65;88.27
64874;HTU21D;51367;45.204;38.576;2023-11-21T08:50:23;4.65;88.26
64874;HTU21D;51367;45.204;38.576;2023-11-21T08:52:49;4.67;88.27
64874;HTU21D;51367;45.204;38.576;2023-11-21T08:55:16;4.68;88.26
64874;HTU21D;51367;45.204;38.576;2023-11-21T08:57:44;4.69;88.22
64874;HTU21D;51367;45.204;38.576;2023-11-21T09:00:11;4.71;88.23
64874;HTU21D;51367;45.204;38.576;2023-11-21T09:02:40;4.73;88.22
64874;HTU21D;51367;45.204;38.576;2023-11-21T09:05:10;4.74;88.19
64874;HTU21D;51367;45.204;38.576;2023-11-21T09:07:37;4.75;88.18
64874;HTU21D;51367;45.204;38.576;2023-11-21T09:10:04;4.77;88.16
64874;HTU21D;51367;45.204;38.576;2023-11-21T09:12:35;4.78;88.16
64874;HTU21D;51367;45.204;38.576;2023-11-21T09:15:06;4.81;88.15
64874;HTU21D;51367;45.204;38.576;2023-11-21T09:17:33;4.82;88.12
64874;HTU21D;51367;45.204;38.576;2023-11-21T09:20:03;4.84;88.12
64874;HTU21D;51367;45.204;38.576;2023-11-21T09:22:31;4.86;88.14
64874;HTU21D;51367;45.204;38.576;2023-11-21T09:24:58;4.87;88.11
64874;HTU21D;51367;45.204;38.576;2023-11-21T09:27:24;4.90;88.09
64874;HTU21D;51367;45.204;38.576;2023-11-21T09:29:51;4.91;88.07
64874;HTU21D;51367;45.204;38.576;2023-11-21T09:32:18;4.91;88.05
64874;HTU21D;51367;45.204;38.576;2023-11-21T09:34:44;4.93;88.04
64874;HTU21D;51367;45.204;38.576;2023-11-21T09:37:10;4.94;88.03
64874;HTU21D;51367;45.204;38.576;2023-11-21T09:39:36;4.95;87.97
64874;HTU21D;51367;45.204;38.576;2023-11-21T09:42:10;4.96;88.03
64874;HTU21D;51367;45.204;38.576;2023-11-21T09:47:38;5.00;88.03
64874;HTU21D;51367;45.204;38.576;2023-11-21T09:50:05;5.03;88.02
64874;HTU21D;51367;45.204;38.576;2023-11-21T09:53:26;5.02;87.95
64874;HTU21D;51367;45.204;38.576;2023-11-21T09:55:27;5.03;87.98
64874;HTU21D;51367;45.204;38.576;2023-11-21T09:58:02;5.04;87.93
64874;HTU21D;51367;45.204;38.576;2023-11-21T10:00:30;5.06;87.95
64874;HTU21D;51367;45.204;38.576;2023-11-21T10:03:01;5.09;87.97
64874;HTU21D;51367;45.204;38.576;2023-11-21T10:05:28;5.10;87.94
64874;HTU21D;51367;45.204;38.576;2023-11-21T10:07:56;5.11;87.89
64874;HTU21D;51367;45.204;38.576;2023-11-21T10:10:23;5.10;87.87
64874;HTU21D;51367;45.204;38.576;2023-11-21T10:12:54;5.10;87.89
64874;HTU21D;51367;45.204;38.576;2023-11-21T10:15:24;5.09;87.90
64874;HTU21D;51367;45.204;38.576;2023-11-21T10:17:53;5.07;87.91
64874;HTU21D;51367;45.204;38.576;2023-11-21T10:20:20;5.06;87.93
64874;HTU21D;51367;45.204;38.576;2023-11-21T10:22:46;5.05;87.98
64874;HTU21D;51367;45.204;38.576;2023-11-21T10:25:13;5.04;88.00
64874;HTU21D;51367;45.204;38.576;2023-11-21T10:27:42;5.05;88.01
64874;HTU21D;51367;45.204;38.576;2023-11-21T10:30:10;5.07;88.06
64874;HTU21D;51367;45.204;38.576;2023-11-21T10:32:39;5.09;88.07
64874;HTU21D;51367;45.204;38.576;2023-11-21T10:35:09;5.10;88.06
64874;HTU21D;51367;45.204;38.576;2023-11-21T10:37:39;5.11;88.03
64874;HTU21D;51367;45.204;38.576;2023-11-21T10:40:10;5.13;87.99
64874;HTU21D;51367;45.204;38.576;2023-11-21T10:42:39;5.15;88.01
64874;HTU21D;51367;45.204;38.576;2023-11-21T10:45:06;5.16;87.96
64874;HTU21D;51367;45.204;38.576;2023-11-21T10:47:43;5.15;87.98
64874;HTU21D;51367;45.204;38.576;2023-11-21T10:50:09;5.15;87.96
64874;HTU21D;51367;45.204;38.576;2023-11-21T10:52:39;5.13;88.00
64874;HTU21D;51367;45.204;38.576;2023-11-21T10:55:18;5.13;88.05
64874;HTU21D;51367;45.204;38.576;2023-11-21T10:57:48;5.16;88.06
64874;HTU21D;51367;45.204;38.576;2023-11-21T11:00:15;5.17;88.10
64874;HTU21D;51367;45.204;38.576;2023-11-21T11:02:42;5.20;88.09
64874;HTU21D;51367;45.204;38.576;2023-11-21T11:05:08;5.21;88.11
64874;HTU21D;51367;45.204;38.576;2023-11-21T11:07:38;5.24;88.09
64874;HTU21D;51367;45.204;38.576;2023-11-21T11:10:08;5.26;88.09
64874;HTU21D;51367;45.204;38.576;2023-11-21T11:12:41;5.30;88.06
64874;HTU21D;51367;45.204;38.576;2023-11-21T11:15:08;5.31;88.00
64874;HTU21D;51367;45.204;38.576;2023-11-21T11:17:37;5.30;87.96
64874;HTU21D;51367;45.204;38.576;2023-11-21T11:20:09;5.30;87.99
64874;HTU21D;51367;45.204;38.576;2023-11-21T11:22:42;5.28;87.99
64874;HTU21D;51367;45.204;38.576;2023-11-21T11:28:27;5.30;88.00
64874;HTU21D;51367;45.204;38.576;2023-11-21T11:31:14;5.31;88.01
64874;HTU21D;51367;45.204;38.576;2023-11-21T11:33:58;5.35;88.03
64874;HTU21D;51367;45.204;38.576;2023-11-21T11:36:34;5.41;88.03
64874;HTU21D;51367;45.204;38.576;2023-11-21T11:39:02;5.46;88.00
64874;HTU21D;51367;45.204;38.576;2023-11-21T11:41:32;5.49;87.93
64874;HTU21D;51367;45.204;38.576;2023-11-21T11:44:01;5.53;87.89
64874;HTU21D;51367;45.204;38.576;2023-11-21T11:46:41;5.56;87.83
64874;HTU21D;51367;45.204;38.576;2023-11-21T11:49:10;5.56;87.82
64874;HTU21D;51367;45.204;38.576;2023-11-21T11:51:45;5.57;87.81
64874;HTU21D;51367;45.204;38.576;2023-11-21T11:54:12;5.60;87.79
64874;HTU21D;51367;45.204;38.576;2023-11-21T11:56:39;5.61;87.82
64874;HTU21D;51367;45.204;38.576;2023-11-21T11:59:05;5.60;87.82
64874;HTU21D;51367;45.204;38.576;2023-11-21T12:01:34;5.59;87.80
64874;HTU21D;51367;45.204;38.576;2023-11-21T12:06:51;5.57;87.81
64874;HTU21D;51367;45.204;38.576;2023-11-21T12:11:46;5.55;87.86
64874;HTU21D;51367;45.204;38.576;2023-11-21T12:14:13;5.55;87.86
64874;HTU21D;51367;45.204;38.576;2023-11-21T12:16:39;5.55;87.91
64874;HTU21D;51367;45.204;38.576;2023-11-21T12:19:05;5.54;87.93
64874;HTU21D;51367;45.204;38.576;2023-11-21T12:21:31;5.54;87.96
64874;HTU21D;51367;45.204;38.576;2023-11-21T12:23:58;5.54;87.95
64874;HTU21D;51367;45.204;38.576;2023-11-21T12:26:24;5.55;87.99
64874;HTU21D;51367;45.204;38.576;2023-11-21T12:28:54;5.57;88.01
64874;HTU21D;51367;45.204;38.576;2023-11-21T12:31:23;5.60;88.02
64874;HTU21D;51367;45.204;38.576;2023-11-21T12:33:49;5.60;87.98
64874;HTU21D;51367;45.204;38.576;2023-11-21T12:36:16;5.57;87.97
64874;HTU21D;51367;45.204;38.576;2023-11-21T12:38:42;5.56;87.99
64874;HTU21D;51367;45.204;38.576;2023-11-21T12:41:11;5.57;87.96
64874;HTU21D;51367;45.204;38.576;2023-11-21T12:43:37;5.56;88.00
64874;HTU21D;51367;45.204;38.576;2023-11-21T12:46:10;5.57;88.02
64874;HTU21D;51367;45.204;38.576;2023-11-21T12:48:41;5.55;88.02
64874;HTU21D;51367;45.204;38.576;2023-11-21T12:51:13;5.57;88.01
64874;HTU21D;51367;45.204;38.576;2023-11-21T12:53:42;5.57;88.05
64874;HTU21D;51367;45.204;38.576;2023-11-21T12:56:12;5.57;88.04
64874;HTU21D;51367;45.204;38.576;2023-11-21T12:58:38;5.56;88.02
64874;HTU21D;51367;45.204;38.576;2023-11-21T13:01:06;5.57;88.00
64874;HTU21D;51367;45.204;38.576;2023-11-21T13:03:40;5.55;87.98
64874;HTU21D;51367;45.204;38.576;2023-11-21T13:06:08;5.56;87.98
64874;HTU21D;51367;45.204;38.576;2023-11-21T13:08:34;5.54;87.99
64874;HTU21D;51367;45.204;38.576;2023-11-21T13:11:00;5.53;87.99
64874;HTU21D;51367;45.204;38.576;2023-11-21T13:13:28;5.51;88.02
64874;HTU21D;51367;45.204;38.576;2023-11-21T13:15:59;5.51;88.04
64874;HTU21D;51367;45.204;38.576;2023-11-21T13:18:32;5.50;88.02
64874;HTU21D;51367;45.204;38.576;2023-11-21T13:21:00;5.49;88.03
64874;HTU21D;51367;45.204;38.576;2023-11-21T13:23:28;5.50;88.04
64874;HTU21D;51367;45.204;38.576;2023-11-21T13:25:55;5.49;88.02
64874;HTU21D;51367;45.204;38.576;2023-11-21T13:28:21;5.50;88.02
64874;HTU21D;51367;45.204;38.576;2023-11-21T13:30:49;5.51;87.99
64874;HTU21D;51367;45.204;38.576;2023-11-21T13:33:18;5.52;87.96
64874;HTU21D;51367;45.204;38.576;2023-11-21T13:35:47;5.48;87.93
64874;HTU21D;51367;45.204;38.576;2023-11-21T13:38:17;5.49;87.92
64874;HTU21D;51367;45.204;38.576;2023-11-21T13:40:51;5.48;87.89
64874;HTU21D;51367;45.204;38.576;2023-11-21T13:43:24;5.46;87.89
64874;HTU21D;51367;45.204;38.576;2023-11-21T13:45:52;5.45;87.86
64874;HTU21D;51367;45.204;38.576;2023-11-21T13:48:26;5.42;87.83
64874;HTU21D;51367;45.204;38.576;2023-11-21T13:51:06;5.41;87.84
64874;HTU21D;51367;45.204;38.576;2023-11-21T13:53:47;5.40;87.82
64874;HTU21D;51367;45.204;38.576;2023-11-21T13:56:16;5.40;87.82
64874;HTU21D;51367;45.204;38.576;2023-11-21T13:58:47;5.38;87.77
64874;HTU21D;51367;45.204;38.576;2023-11-21T14:01:18;5.37;87.72
64874;HTU21D;51367;45.204;38.576;2023-11-21T14:04:01;5.34;87.73
64874;HTU21D;51367;45.204;38.576;2023-11-21T14:06:43;5.34;87.71
64874;HTU21D;51367;45.204;38.576;2023-11-21T14:09:21;5.32;87.69
64874;HTU21D;51367;45.204;38.576;2023-11-21T14:12:01;5.32;87.70
64874;HTU21D;51367;45.204;38.576;2023-11-21T14:14:32;5.30;87.66
64874;HTU21D;51367;45.204;38.576;2023-11-21T14:16:57;5.30;87.64
64874;HTU21D;51367;45.204;38.576;2023-11-21T14:19:24;5.30;87.62
64874;HTU21D;51367;45.204;38.576;2023-11-21T14:21:58;5.28;87.64
64874;HTU21D;51367;45.204;38.576;2023-11-21T14:24:24;5.26;87.61
64874;HTU21D;51367;45.204;38.576;2023-11-21T14:26:51;5.26;87.61
64874;HTU21D;51367;45.204;38.576;2023-11-21T14:29:18;5.35;87.93
64874;HTU21D;51367;45.204;38.576;2023-11-21T14:31:49;5.48;87.86
64874;HTU21D;51367;45.204;38.576;2023-11-21T14:34:17;5.51;87.63
64874;HTU21D;51367;45.204;38.576;2023-11-21T14:36:44;5.49;87.47
64874;HTU21D;51367;45.204;38.576;2023-11-21T14:39:10;5.47;87.38
64874;HTU21D;51367;45.204;38.576;2023-11-21T14:41:53;5.42;87.34
64874;HTU21D;51367;45.204;38.576;2023-11-21T14:44:21;5.38;87.34
64874;HTU21D;51367;45.204;38.576;2023-11-21T14:46:52;5.34;87.35
64874;HTU21D;51367;45.204;38.576;2023-11-21T14:49:20;5.31;87.35
64874;HTU21D;51367;45.204;38.576;2023-11-21T14:51:52;5.26;87.38
64874;HTU21D;51367;45.204;38.576;2023-11-21T14:54:21;5.23;87.41
64874;HTU21D;51367;45.204;38.576;2023-11-21T14:57:04;5.20;87.46
64874;HTU21D;51367;45.204;38.576;2023-11-21T14:59:35;5.20;87.48
64874;HTU21D;51367;45.204;38.576;2023-11-21T15:02:01;5.17;87.46
64874;HTU21D;51367;45.204;38.576;2023-11-21T15:04:41;5.16;87.46
64874;HTU21D;51367;45.204;38.576;2023-11-21T15:07:08;5.15;87.49
64874;HTU21D;51367;45.204;38.576;2023-11-21T15:09:34;5.13;87.46
64874;HTU21D;51367;45.204;38.576;2023-11-21T15:12:02;5.11;87.47
64874;HTU21D;51367;45.204;38.576;2023-11-21T15:14:54;5.10;87.47
64874;HTU21D;51367;45.204;38.576;2023-11-21T15:17:23;5.11;87.44
64874;HTU21D;51367;45.204;38.576;2023-11-21T15:19:52;5.09;87.44
64874;HTU21D;51367;45.204;38.576;2023-11-21T15:22:19;5.08;87.46
64874;HTU21D;51367;45.204;38.576;2023-11-21T15:24:45;5.07;87.44
64874;HTU21D;51367;45.204;38.576;2023-11-21T15:27:16;5.07;87.44
64874;HTU21D;51367;45.204;38.576;2023-11-21T15:29:43;5.07;87.42
64874;HTU21D;51367;45.204;38.576;2023-11-21T15:32:09;5.08;87.41